Time;durP1;ratioP1;P1;durP2;ratioP2;P2;SDS_P1;SDS_P2;PMS_P1;PMS_P2;Temp;Humidity;BMP_temperature;BMP_pressure;BME280_temperature;BME280_humidity;BME280_pressure;Samples;Min_cycle;Max_cycle;Signal;HPM_P1;HPM_P2
2022/10/20 00:01:31;;;;;;;0.40;0.40;;;;;;;11.47;100.00;99826.91;5026333;28;20029;-86
2022/10/20 00:03:57;;;;;;;0.30;0.30;;;;;;;11.56;100.00;99817.59;5028209;28;20391;-86
2022/10/20 00:06:26;;;;;;;0.40;0.40;;;;;;;11.78;100.00;99831.72;5026904;28;20033;-87
2022/10/20 00:08:53;;;;;;;0.40;0.40;;;;;;;11.89;100.00;99830.31;5008099;28;20075;-87
2022/10/20 00:11:20;;;;;;;0.40;0.40;;;;;;;11.95;100.00;99842.13;5028951;28;20033;-85
2022/10/20 00:13:47;;;;;;;0.40;0.40;;;;;;;11.88;100.00;99840.25;5009414;28;20038;-84
2022/10/20 00:16:14;;;;;;;0.30;0.30;;;;;;;11.88;100.00;99834.88;5013139;28;20362;-87
2022/10/20 00:18:39;;;;;;;0.30;0.30;;;;;;;11.94;100.00;99835.91;4995897;28;20030;-87
2022/10/20 00:21:07;;;;;;;0.30;0.30;;;;;;;12.00;100.00;99829.69;4987297;28;20040;-85
2022/10/20 00:23:33;;;;;;;0.40;0.40;;;;;;;12.02;100.00;99826.78;5003043;28;20029;-85
2022/10/20 00:26:05;;;;;;;0.30;0.30;;;;;;;11.97;100.00;99823.88;5027551;28;20128;-90
2022/10/20 00:28:30;;;;;;;0.40;0.40;;;;;;;11.99;100.00;99828.03;5007704;28;20076;-84
2022/10/20 00:30:56;;;;;;;0.30;0.30;;;;;;;12.00;100.00;99823.47;4992726;28;20445;-86
2022/10/20 00:33:22;;;;;;;0.30;0.30;;;;;;;12.04;100.00;99824.69;4995403;28;20038;-85
2022/10/20 00:35:48;;;;;;;0.30;0.30;;;;;;;11.99;100.00;99819.13;5007663;28;20072;-85
2022/10/20 00:38:14;;;;;;;0.40;0.40;;;;;;;12.00;100.00;99816.19;5024357;28;20065;-84
2022/10/20 00:40:39;;;;;;;0.40;0.40;;;;;;;11.91;100.00;99811.22;5010968;28;20037;-85
2022/10/20 00:43:11;;;;;;;0.30;0.30;;;;;;;11.91;100.00;99808.53;5025220;28;20037;-85
2022/10/20 00:45:37;;;;;;;0.40;0.40;;;;;;;11.80;100.00;99791.94;5024236;28;20091;-86
2022/10/20 00:48:24;;;;;;;0.30;0.30;;;;;;;11.79;100.00;99809.13;5018671;28;20030;-85
2022/10/20 00:50:52;;;;;;;0.30;0.30;;;;;;;11.82;100.00;99814.09;5017066;28;20037;-88
2022/10/20 00:53:18;;;;;;;0.30;0.30;;;;;;;11.84;100.00;99806.63;5023502;28;20479;-88
2022/10/20 00:55:47;;;;;;;0.40;0.40;;;;;;;11.84;100.00;99806.63;4993047;28;20036;-85
2022/10/20 00:58:13;;;;;;;0.30;0.30;;;;;;;11.78;100.00;99794.00;5029477;28;20049;-85
2022/10/20 01:00:39;;;;;;;0.40;0.40;;;;;;;11.77;100.00;99805.81;5023097;28;20044;-87
2022/10/20 01:03:07;;;;;;;0.32;0.32;;;;;;;11.75;100.00;99801.66;5024429;28;20172;-84
2022/10/20 01:05:33;;;;;;;0.40;0.40;;;;;;;11.75;100.00;99786.34;5009118;28;20111;-87
2022/10/20 01:08:01;;;;;;;0.30;0.30;;;;;;;11.74;100.00;99790.06;5007538;28;20038;-88
2022/10/20 01:10:45;;;;;;;0.40;0.40;;;;;;;11.54;100.00;99747.00;5010231;28;20064;-86
2022/10/20 01:13:27;;;;;;;0.30;0.30;;;;;;;11.76;100.00;99787.19;4992291;28;20402;-87
2022/10/20 01:16:11;;;;;;;0.40;0.40;;;;;;;11.78;100.00;99783.25;5014908;28;20037;-85
2022/10/20 01:19:13;;;;;;;0.40;0.40;;;;;;;11.83;100.00;99779.94;5027355;28;20067;-87
2022/10/20 01:22:00;;;;;;;0.32;0.32;;;;;;;11.81;100.00;99776.63;5023872;28;20064;-87
2022/10/20 01:24:37;;;;;;;0.40;0.40;;;;;;;11.59;100.00;99746.34;5008188;28;20038;-84
2022/10/20 01:27:15;;;;;;;0.40;0.40;;;;;;;11.69;100.00;99762.94;5010851;28;20103;-87
2022/10/20 01:29:46;;;;;;;0.30;0.30;;;;;;;11.69;100.00;99765.63;5009179;28;20040;-84
2022/10/20 01:32:36;;;;;;;0.40;0.40;;;;;;;11.64;100.00;99762.72;4991477;28;20140;-87
2022/10/20 01:35:10;;;;;;;0.35;0.35;;;;;;;11.63;100.00;99758.38;5008295;28;20304;-87
2022/10/20 01:37:39;;;;;;;0.40;0.40;;;;;;;11.64;100.00;99765.41;5011995;28;20045;-83
2022/10/20 01:40:34;;;;;;;0.40;0.40;;;;;;;11.62;100.00;99765.63;5007493;28;20197;-87
2022/10/20 01:43:03;;;;;;;0.32;0.32;;;;;;;11.63;100.00;99758.38;5037609;28;20049;-86
2022/10/20 01:45:32;;;;;;;0.30;0.30;;;;;;;11.63;100.00;99761.06;5016515;28;20037;-85
2022/10/20 01:48:02;;;;;;;0.32;0.32;;;;;;;11.65;100.00;99761.69;4991132;28;20033;-87
2022/10/20 01:50:28;;;;;;;0.40;0.40;;;;;;;11.71;100.00;99760.88;4990698;28;20045;-87
2022/10/20 01:52:56;;;;;;;0.40;0.40;;;;;;;11.71;100.00;99755.47;4990038;28;20064;-86
2022/10/20 01:55:22;;;;;;;0.30;0.30;;;;;;;11.74;100.00;99763.13;5023972;28;20483;-89
2022/10/20 01:58:05;;;;;;;0.30;0.30;;;;;;;11.76;100.00;99758.38;4990693;28;20022;-84
2022/10/20 02:00:34;;;;;;;0.30;0.30;;;;;;;11.75;100.00;99745.97;5025662;28;20042;-84
2022/10/20 02:03:25;;;;;;;0.30;0.30;;;;;;;11.76;100.00;99727.94;5022483;28;20037;-84
2022/10/20 02:06:20;;;;;;;0.40;0.40;;;;;;;11.80;100.00;99731.84;5000115;28;20124;-86
2022/10/20 02:08:55;;;;;;;0.30;0.30;;;;;;;11.88;100.00;99740.59;5019816;28;20041;-87
2022/10/20 02:11:43;;;;;;;0.40;0.40;;;;;;;11.90;100.00;99747.63;4989719;28;20029;-84
2022/10/20 02:14:14;;;;;;;0.40;0.40;;;;;;;11.87;100.00;99754.25;5026229;28;20034;-84
2022/10/20 02:16:50;;;;;;;0.30;0.30;;;;;;;11.85;100.00;99762.53;4993622;28;20044;-85
2022/10/20 02:19:18;;;;;;;0.30;0.30;;;;;;;11.94;100.00;99775.81;5023216;28;20111;-86
2022/10/20 02:21:44;;;;;;;0.40;0.40;;;;;;;11.91;100.00;99768.13;5009955;28;20135;-84
2022/10/20 02:24:13;;;;;;;0.40;0.40;;;;;;;12.00;100.00;99767.72;5007632;28;20057;-85
2022/10/20 02:26:39;;;;;;;0.30;0.30;;;;;;;12.00;100.00;99767.72;4992974;28;20033;-84
2022/10/20 02:29:19;;;;;;;0.40;0.40;;;;;;;11.97;100.00;99760.06;5007918;28;20383;-84
2022/10/20 02:31:45;;;;;;;0.30;0.30;;;;;;;11.96;100.00;99758.41;5022303;28;20045;-84
2022/10/20 02:34:11;;;;;;;0.40;0.40;;;;;;;12.02;100.00;99757.56;5008282;28;20036;-87
2022/10/20 02:36:39;;;;;;;0.40;0.40;;;;;;;12.02;100.00;99762.13;5011084;28;20048;-84
2022/10/20 02:39:05;;;;;;;0.40;0.40;;;;;;;11.90;100.00;99753.84;5036810;28;20044;-84
2022/10/20 02:41:31;;;;;;;0.40;0.40;;;;;;;11.96;100.00;99762.94;5007754;28;20483;-85
2022/10/20 02:43:57;;;;;;;0.40;0.40;;;;;;;11.86;100.00;99745.34;5027547;28;20033;-83
2022/10/20 02:46:23;;;;;;;0.30;0.30;;;;;;;11.90;100.00;99750.31;5038755;28;20033;-84
2022/10/20 02:48:48;;;;;;;0.30;0.30;;;;;;;11.93;100.00;99755.28;5002582;28;21892;-87
2022/10/20 02:51:16;;;;;;;0.30;0.30;;;;;;;11.87;100.00;99755.06;5003237;28;20032;-85
2022/10/20 02:53:43;;;;;;;0.40;0.40;;;;;;;11.91;100.00;99770.81;4994219;28;20463;-86
2022/10/20 02:56:08;;;;;;;0.30;0.30;;;;;;;11.96;100.00;99777.25;4995730;28;20111;-87
2022/10/20 02:58:37;;;;;;;0.40;0.40;;;;;;;11.97;100.00;99767.31;5002936;28;20064;-85
2022/10/20 03:01:03;;;;;;;0.30;0.30;;;;;;;11.84;100.00;99760.84;5023482;28;20475;-87
2022/10/20 03:03:28;;;;;;;0.40;0.40;;;;;;;11.70;100.00;99756.53;5006669;28;20028;-87
2022/10/20 03:05:54;;;;;;;0.40;0.40;;;;;;;11.60;100.00;99748.03;5024113;28;20391;-83
2022/10/20 03:08:20;;;;;;;0.40;0.40;;;;;;;11.50;100.00;99739.53;5027080;28;20033;-83
2022/10/20 03:10:46;;;;;;;0.40;0.40;;;;;;;11.42;100.00;99736.00;5008679;28;20033;-86
2022/10/20 03:13:13;;;;;;;0.40;0.40;;;;;;;11.39;100.00;99746.38;4986660;28;20052;-88
2022/10/20 03:15:38;;;;;;;0.30;0.30;;;;;;;11.29;100.00;99754.00;5009090;28;20487;-88
2022/10/20 03:18:04;;;;;;;0.40;0.40;;;;;;;11.14;100.00;99752.34;4994116;28;20044;-87
2022/10/20 03:20:30;;;;;;;0.30;0.30;;;;;;;11.03;100.00;99754.78;4988545;28;20044;-85
2022/10/20 03:22:56;;;;;;;0.40;0.40;;;;;;;10.90;100.00;99763.63;4993129;28;20132;-88
2022/10/20 03:25:22;;;;;;;0.40;0.40;;;;;;;10.78;100.00;99761.53;5009749;28;20049;-86
2022/10/20 03:27:47;;;;;;;0.30;0.30;;;;;;;10.66;100.00;99760.44;5008742;28;20171;-85
2022/10/20 03:30:13;;;;;;;0.30;0.30;;;;;;;10.67;100.00;99761.31;5006255;28;20046;-84
2022/10/20 03:32:39;;;;;;;0.30;0.30;;;;;;;10.75;100.00;99761.13;5027376;28;20502;-86
2022/10/20 03:35:05;;;;;;;0.40;0.40;;;;;;;10.74;100.00;99756.75;4993884;28;20486;-88
2022/10/20 03:37:30;;;;;;;0.35;0.35;;;;;;;10.57;100.00;99762.50;5028669;28;20086;-86
2022/10/20 03:39:56;;;;;;;0.30;0.30;;;;;;;10.41;100.00;99764.69;5025215;28;20475;-85
2022/10/20 03:42:21;;;;;;;0.40;0.40;;;;;;;10.32;100.00;99766.72;5026713;28;20133;-83
2022/10/20 03:44:47;;;;;;;0.30;0.30;;;;;;;10.29;100.00;99756.34;5009542;28;20063;-87
2022/10/20 03:47:13;;;;;;;0.30;0.30;;;;;;;10.31;100.00;99768.56;5008010;28;20037;-83
2022/10/20 03:49:39;;;;;;;0.40;0.40;;;;;;;10.18;100.00;99767.63;5025730;28;20509;-84
2022/10/20 03:52:05;;;;;;;0.30;0.30;;;;;;;10.15;100.00;99773.41;5039366;28;20080;-85
2022/10/20 03:54:31;;;;;;;0.40;0.40;;;;;;;10.03;100.00;99762.34;4997447;28;20444;-87
2022/10/20 03:56:56;;;;;;;0.40;0.40;;;;;;;9.79;100.00;99750.22;4996628;28;20040;-84
2022/10/20 03:59:25;;;;;;;0.40;0.40;;;;;;;9.77;100.00;99769.22;5022319;28;20073;-86
2022/10/20 04:01:51;;;;;;;0.38;0.38;;;;;;;9.77;100.00;99765.72;5024955;28;20495;-86
2022/10/20 04:04:16;;;;;;;0.40;0.40;;;;;;;9.72;100.00;99763.59;5007646;28;20042;-83
2022/10/20 04:06:44;;;;;;;0.40;0.40;;;;;;;9.67;100.00;99764.19;4993648;28;20039;-86
2022/10/20 04:09:10;;;;;;;0.30;0.30;;;;;;;9.79;100.00;99766.31;5016446;28;20060;-83
2022/10/20 04:11:36;;;;;;;0.30;0.30;;;;;;;9.79;100.00;99758.25;5035275;28;20774;-85
2022/10/20 04:14:01;;;;;;;0.35;0.35;;;;;;;9.78;100.00;99768.19;5020732;28;20069;-84
2022/10/20 04:16:27;;;;;;;0.40;0.40;;;;;;;9.86;100.00;99764.53;5065056;28;20042;-86
2022/10/20 04:18:54;;;;;;;0.40;0.40;;;;;;;10.06;100.00;99770.88;5011830;28;20180;-84
2022/10/20 04:21:19;;;;;;;0.40;0.40;;;;;;;10.14;100.00;99772.56;5014415;28;20044;-85
2022/10/20 04:23:45;;;;;;;0.30;0.30;;;;;;;10.33;100.00;99768.38;4993524;28;20033;-84
2022/10/20 04:26:13;;;;;;;0.40;0.40;;;;;;;10.51;100.00;99776.75;4994716;28;20037;-86
2022/10/20 04:28:38;;;;;;;0.50;0.50;;;;;;;10.55;100.00;99783.34;5057262;28;20022;-85
2022/10/20 04:31:05;;;;;;;0.40;0.40;;;;;;;10.52;100.00;99786.44;5021313;28;20033;-85
2022/10/20 04:33:30;;;;;;;0.40;0.40;;;;;;;10.50;100.00;99793.88;5012349;28;20472;-88
2022/10/20 04:36:05;;;;;;;0.30;0.30;;;;;;;10.68;100.00;99792.53;5030449;28;20043;-85
2022/10/20 04:38:32;;;;;;;0.40;0.40;;;;;;;10.91;100.00;99786.84;5004512;28;20073;-86
2022/10/20 04:41:00;;;;;;;0.30;0.30;;;;;;;11.00;100.00;99794.50;5029906;28;20068;-85
2022/10/20 04:43:26;;;;;;;0.40;0.40;;;;;;;11.01;100.00;99792.66;4991777;28;20124;-84
2022/10/20 04:45:57;;;;;;;0.30;0.30;;;;;;;11.00;100.00;99790.97;5021805;28;20124;-84
2022/10/20 04:48:23;;;;;;;0.30;0.30;;;;;;;10.87;100.00;99774.81;5008272;28;20033;-88
2022/10/20 04:51:05;;;;;;;0.40;0.40;;;;;;;10.94;100.00;99779.19;5004713;28;20065;-86
2022/10/20 04:53:30;;;;;;;0.40;0.40;;;;;;;10.93;100.00;99774.84;5028538;28;21810;-84
2022/10/20 04:55:57;;;;;;;0.30;0.30;;;;;;;10.98;100.00;99772.38;5022897;28;20128;-84
2022/10/20 04:58:23;;;;;;;0.40;0.40;;;;;;;10.97;100.00;99767.19;5022449;28;20038;-84
2022/10/20 05:00:49;;;;;;;0.30;0.30;;;;;;;10.91;100.00;99771.50;5006916;28;20033;-84
2022/10/20 05:03:15;;;;;;;0.30;0.30;;;;;;;10.83;100.00;99762.81;5010112;28;20041;-85
2022/10/20 05:05:40;;;;;;;0.40;0.40;;;;;;;10.70;100.00;99761.72;5004729;28;20061;-84
2022/10/20 05:08:06;;;;;;;0.30;0.30;;;;;;;10.71;100.00;99767.91;5026562;28;20037;-85
2022/10/20 05:10:32;;;;;;;0.30;0.30;;;;;;;10.70;100.00;99763.59;5003756;28;20037;-85
2022/10/20 05:12:57;;;;;;;0.35;0.35;;;;;;;10.71;100.00;99766.06;4985049;28;20041;-86
2022/10/20 05:15:23;;;;;;;0.40;0.40;;;;;;;10.70;100.00;99763.59;5001855;28;20033;-85
2022/10/20 05:17:48;;;;;;;0.40;0.40;;;;;;;10.62;100.00;99758.38;4993316;28;20033;-87
2022/10/20 05:20:17;;;;;;;0.40;0.40;;;;;;;10.50;100.00;99758.94;5023100;28;20048;-83
2022/10/20 05:23:01;;;;;;;0.40;0.40;;;;;;;10.36;100.00;99757.22;4991110;28;20561;-87
2022/10/20 05:25:27;;;;;;;0.40;0.40;;;;;;;10.25;100.00;99755.06;4989716;28;20475;-87
2022/10/20 05:27:52;;;;;;;0.30;0.30;;;;;;;10.09;100.00;99751.66;4988561;28;20040;-84
2022/10/20 05:30:18;;;;;;;0.50;0.50;;;;;;;10.01;100.00;99759.88;4996248;28;20037;-85
2022/10/20 05:32:44;;;;;;;0.35;0.35;;;;;;;9.91;100.00;99759.41;5028987;28;20391;-85
2022/10/20 05:35:10;;;;;;;0.30;0.30;;;;;;;9.96;100.00;99756.13;4995810;28;20452;-86
2022/10/20 05:37:35;;;;;;;0.30;0.30;;;;;;;10.06;100.00;99757.44;5013799;28;20037;-85
2022/10/20 05:40:02;;;;;;;0.40;0.40;;;;;;;10.20;100.00;99762.91;4994037;28;20373;-83
2022/10/20 05:42:28;;;;;;;0.40;0.40;;;;;;;10.31;100.00;99755.13;5027672;28;20475;-84
2022/10/20 05:44:55;;;;;;;0.30;0.30;;;;;;;10.48;100.00;99752.13;5013036;28;20041;-84
2022/10/20 05:47:20;;;;;;;0.30;0.30;;;;;;;10.59;100.00;99756.94;5012159;28;20069;-86
2022/10/20 05:49:46;;;;;;;0.40;0.40;;;;;;;10.62;100.00;99761.06;5023356;28;20044;-85
2022/10/20 05:52:12;;;;;;;0.40;0.40;;;;;;;10.68;100.00;99760.25;5026837;28;20037;-84
2022/10/20 05:54:38;;;;;;;0.40;0.40;;;;;;;10.72;100.00;99766.91;5019887;28;20476;-85
2022/10/20 05:57:03;;;;;;;0.30;0.30;;;;;;;10.82;100.00;99756.56;4993411;28;20029;-84
2022/10/20 05:59:31;;;;;;;0.30;0.30;;;;;;;10.96;100.00;99752.91;5011430;28;20128;-84
2022/10/20 06:01:56;;;;;;;0.30;0.30;;;;;;;11.12;100.00;99742.81;4996202;28;20128;-85
2022/10/20 06:04:22;;;;;;;0.40;0.40;;;;;;;11.29;100.00;99741.38;5018468;28;20030;-85
2022/10/20 06:06:49;;;;;;;0.32;0.32;;;;;;;11.35;100.00;99740.56;5016393;28;20029;-85
2022/10/20 06:09:15;;;;;;;0.35;0.35;;;;;;;11.28;100.00;99731.66;5001541;28;20180;-84
2022/10/20 06:11:40;;;;;;;0.30;0.30;;;;;;;11.17;100.00;99719.63;5029431;28;20059;-86
2022/10/20 06:14:07;;;;;;;0.43;0.43;;;;;;;11.15;100.00;99715.50;5005389;28;20299;-83
2022/10/20 06:16:33;;;;;;;0.30;0.30;;;;;;;11.21;100.00;99728.13;5007042;28;20376;-86
2022/10/20 06:18:59;;;;;;;0.30;0.30;;;;;;;11.12;100.00;99719.41;5009185;28;20048;-86
2022/10/20 06:21:27;;;;;;;0.30;0.30;;;;;;;11.11;100.00;99716.91;5024647;28;20033;-85
2022/10/20 06:23:53;;;;;;;0.30;0.30;;;;;;;11.08;100.00;99728.09;4989571;28;20033;-85
2022/10/20 06:26:23;;;;;;;0.40;0.40;;;;;;;11.04;100.00;99725.00;5023054;28;20034;-85
2022/10/20 06:28:52;;;;;;;0.30;0.30;;;;;;;11.03;100.00;99726.00;5004296;28;20041;-85
2022/10/20 06:31:20;;;;;;;0.40;0.40;;;;;;;10.91;100.00;99717.72;4988740;28;20033;-86
2022/10/20 06:33:46;;;;;;;0.30;0.30;;;;;;;10.83;100.00;99703.66;5001447;28;20082;-86
2022/10/20 06:36:12;;;;;;;0.40;0.40;;;;;;;10.80;100.00;99710.25;5016574;28;20056;-86
2022/10/20 06:38:39;;;;;;;0.30;0.30;;;;;;;10.77;100.00;99707.97;4994851;28;20078;-84
2022/10/20 06:41:07;;;;;;;0.40;0.40;;;;;;;10.73;100.00;99714.78;5008820;28;20041;-87
2022/10/20 06:43:33;;;;;;;0.40;0.40;;;;;;;10.71;100.00;99717.66;4989532;28;20083;-85
2022/10/20 06:46:03;;;;;;;0.30;0.30;;;;;;;10.63;100.00;99714.34;5004572;28;20033;-86
2022/10/20 06:48:30;;;;;;;0.30;0.30;;;;;;;10.62;100.00;99710.00;5021624;28;20059;-85
2022/10/20 06:51:00;;;;;;;0.40;0.40;;;;;;;10.59;100.00;99716.59;5007631;28;20030;-85
2022/10/20 06:53:26;;;;;;;0.40;0.40;;;;;;;10.57;100.00;99710.59;5038885;28;20029;-85
2022/10/20 06:56:00;;;;;;;0.35;0.35;;;;;;;10.64;100.00;99716.84;5018686;28;20037;-85
2022/10/20 06:58:26;;;;;;;0.40;0.40;;;;;;;10.57;100.00;99711.41;4990889;28;20048;-84
2022/10/20 07:01:04;;;;;;;0.30;0.30;;;;;;;10.50;100.00;99729.38;5036240;28;20037;-84
2022/10/20 07:03:30;;;;;;;0.40;0.40;;;;;;;10.49;100.00;99719.66;5018010;28;20040;-85
2022/10/20 07:05:56;;;;;;;0.40;0.40;;;;;;;10.54;100.00;99732.50;5022424;28;20030;-84
2022/10/20 07:08:27;;;;;;;0.30;0.30;;;;;;;10.50;100.00;99734.75;5020102;28;20034;-85
2022/10/20 07:11:14;;;;;;;0.40;0.40;;;;;;;10.49;100.00;99746.53;5011969;28;20037;-83
2022/10/20 07:13:40;;;;;;;0.40;0.40;;;;;;;10.42;100.00;99729.53;5017788;28;20025;-85
2022/10/20 07:16:07;;;;;;;0.30;0.30;;;;;;;10.40;100.00;99742.38;4996860;28;20037;-83
2022/10/20 07:18:41;;;;;;;0.30;0.30;;;;;;;10.37;100.00;99729.31;4990421;28;20045;-88
2022/10/20 07:21:11;;;;;;;0.30;0.30;;;;;;;10.57;100.00;99758.97;5004323;28;20040;-85
2022/10/20 07:23:37;;;;;;;0.40;0.40;;;;;;;10.64;100.00;99749.09;4984372;28;20419;-86
2022/10/20 07:26:09;;;;;;;0.30;0.30;;;;;;;10.62;100.00;99737.69;5019997;28;20040;-85
2022/10/20 07:28:36;;;;;;;0.40;0.40;;;;;;;10.56;100.00;99744.72;5021242;28;20064;-87
2022/10/20 07:31:03;;;;;;;0.40;0.40;;;;;;;10.63;100.00;99747.41;5023908;28;20541;-84
2022/10/20 07:33:29;;;;;;;0.40;0.40;;;;;;;10.62;100.00;99753.00;5012631;28;20038;-85
2022/10/20 07:35:55;;;;;;;0.30;0.30;;;;;;;10.64;100.00;99746.41;4991876;28;20044;-86
2022/10/20 07:38:20;;;;;;;0.30;0.30;;;;;;;10.67;100.00;99731.72;5019685;28;20384;-85
2022/10/20 07:40:46;;;;;;;0.40;0.40;;;;;;;10.77;100.00;99745.63;5007745;28;22029;-85
2022/10/20 07:43:11;;;;;;;0.40;0.40;;;;;;;10.76;100.00;99743.94;5003673;28;20049;-85
2022/10/20 07:45:37;;;;;;;0.40;0.40;;;;;;;10.82;100.00;99751.19;5020629;28;20052;-86
2022/10/20 07:48:05;;;;;;;0.30;0.30;;;;;;;10.74;100.00;99760.31;5003269;28;20068;-85
2022/10/20 07:50:32;;;;;;;0.47;0.47;;;;;;;10.62;100.00;99756.53;5014450;28;21281;-87
2022/10/20 07:52:58;;;;;;;0.40;0.40;;;;;;;10.79;100.00;99765.88;5001609;28;20065;-85
2022/10/20 07:55:23;;;;;;;0.47;0.47;;;;;;;10.95;100.00;99767.38;4992612;28;20108;-83
2022/10/20 07:57:49;;;;;;;0.40;0.40;;;;;;;11.09;100.00;99764.75;5010663;28;20034;-84
2022/10/20 08:00:15;;;;;;;0.40;0.40;;;;;;;11.28;100.00;99766.63;5024659;28;20083;-86
2022/10/20 08:02:40;;;;;;;0.40;0.40;;;;;;;11.45;100.00;99767.06;4987765;28;20072;-85
2022/10/20 08:05:07;;;;;;;0.40;0.40;;;;;;;11.72;100.00;99762.50;5010668;28;20282;-84
2022/10/20 08:07:33;;;;;;;0.50;0.50;;;;;;;11.98;100.00;99761.69;5019022;28;20050;-84
2022/10/20 08:09:58;;;;;;;0.40;0.40;;;;;;;11.99;100.00;99757.97;4992201;28;20487;-86
2022/10/20 08:12:24;;;;;;;0.50;0.50;;;;;;;11.94;100.00;99765.03;4990248;28;20037;-84
2022/10/20 08:14:50;;;;;;;0.50;0.50;;;;;;;11.98;100.00;99766.25;5008821;28;20156;-84
2022/10/20 08:17:26;;;;;;;0.43;0.43;;;;;;;11.99;100.00;99757.97;5017970;28;20091;-84
2022/10/20 08:20:01;;;;;;;0.45;0.45;;;;;;;12.04;100.00;99765.41;5022533;28;20077;-87
2022/10/20 08:22:27;;;;;;;0.40;0.40;;;;;;;12.13;100.00;99755.25;5028740;28;20081;-84
2022/10/20 08:24:53;;;;;;;0.40;0.40;;;;;;;12.38;100.00;99750.81;4993798;28;20476;-87
2022/10/20 08:27:18;;;;;;;0.40;0.40;;;;;;;12.76;100.00;99755.47;5011684;28;20049;-86
2022/10/20 08:29:44;;;;;;;0.47;0.47;;;;;;;12.77;100.00;99755.22;5026504;28;20037;-86
2022/10/20 08:32:11;;;;;;;0.40;0.40;;;;;;;13.04;100.00;99743.47;5024788;28;20036;-84
2022/10/20 08:34:37;;;;;;;0.40;0.40;;;;;;;13.37;100.00;99727.09;5030165;28;20037;-84
2022/10/20 08:37:03;;;;;;;1.00;1.00;;;;;;;14.97;100.00;99742.47;4999146;28;20460;-83
2022/10/20 08:39:28;;;;;;;0.60;0.60;;;;;;;16.38;100.00;99737.25;5010990;28;20038;-86
2022/10/20 08:42:02;;;;;;;0.57;0.57;;;;;;;17.42;100.00;99736.25;5029613;28;20109;-84
2022/10/20 08:44:31;;;;;;;;;;;;;;;18.37;97.35;99730.91;4992808;28;20491;-82
2022/10/20 08:47:00;;;;;;;23.90;1.48;;;;;;;18.96;93.42;99716.66;4995866;28;19921;-83
2022/10/20 08:49:29;;;;;;;4.82;1.20;;;;;;;18.71;93.98;99711.69;4991586;28;20198;-83
2022/10/20 08:51:54;;;;;;;4.85;0.88;;;;;;;18.85;93.40;99697.47;5030432;28;20064;-83
2022/10/20 08:54:20;;;;;;;3.38;1.27;;;;;;;20.07;89.05;99699.56;5031325;28;20025;-81
2022/10/20 08:56:46;;;;;;;3.58;2.15;;;;;;;20.72;85.03;99708.38;5030091;28;20025;-81
2022/10/20 08:59:32;;;;;;;8.38;2.35;;;;;;;20.67;83.07;99707.50;4999135;28;20041;-81
2022/10/20 09:01:58;;;;;;;5.45;1.33;;;;;;;20.27;86.43;99701.59;5015576;28;20087;-81
2022/10/20 09:04:35;;;;;;;7.75;2.65;;;;;;;19.90;87.93;99704.38;4991500;28;20037;-83
2022/10/20 09:07:08;;;;;;;11.55;4.07;;;;;;;19.98;88.38;99706.63;5028274;28;20100;-82
2022/10/20 09:09:33;;;;;;;21.40;5.90;;;;;;;20.94;86.08;99694.47;4995854;28;20044;-82
2022/10/20 09:12:05;;;;;;;10.82;3.25;;;;;;;22.17;79.54;99680.75;4994313;28;20033;-81
2022/10/20 09:14:33;;;;;;;7.40;2.13;;;;;;;22.95;74.26;99668.34;5049601;28;20038;-82
2022/10/20 09:16:59;;;;;;;17.35;4.32;;;;;;;23.26;75.33;99693.66;5027997;28;20075;-82
2022/10/20 09:19:26;;;;;;;8.70;3.85;;;;;;;24.00;73.66;99688.91;5029234;28;20107;-81
2022/10/20 09:21:54;;;;;;;6.18;2.95;;;;;;;24.29;70.64;99688.00;5029953;28;20029;-82
2022/10/20 09:24:21;;;;;;;12.10;3.50;;;;;;;24.14;72.02;99684.34;4991799;28;20057;-83
2022/10/20 09:26:48;;;;;;;15.27;3.60;;;;;;;23.93;72.10;99682.94;5031052;28;20111;-82
2022/10/20 09:29:17;;;;;;;10.48;3.72;;;;;;;24.20;72.81;99687.84;5010652;28;20046;-81
2022/10/20 09:31:53;;;;;;;11.57;3.05;;;;;;;24.49;71.67;99689.72;4998015;28;20541;-81
2022/10/20 09:34:27;;;;;;;16.38;3.00;;;;;;;24.63;69.54;99678.81;5006589;28;20038;-82
2022/10/20 09:37:00;;;;;;;11.30;3.70;;;;;;;24.32;73.36;99684.69;5027788;28;20482;-82
2022/10/20 09:39:27;;;;;;;14.13;3.30;;;;;;;23.71;73.17;99675.16;4998320;28;20064;-82
2022/10/20 09:42:06;;;;;;;12.57;3.90;;;;;;;22.98;76.20;99685.06;5016445;28;20037;-80
2022/10/20 09:44:37;;;;;;;18.10;6.22;;;;;;;21.15;86.72;99700.00;5016123;28;20037;-81
2022/10/20 09:47:02;;;;;;;16.75;3.83;;;;;;;21.17;86.91;99701.34;5015775;28;20375;-82
2022/10/20 09:49:36;;;;;;;10.05;3.53;;;;;;;19.90;91.47;99707.94;5000924;28;20056;-81
2022/10/20 09:52:03;;;;;;;11.57;3.85;;;;;;;18.88;97.13;99688.78;4993130;28;20038;-80
2022/10/20 09:54:29;;;;;;;8.98;3.28;;;;;;;18.36;100.00;99708.28;5029050;28;20055;-81
2022/10/20 09:57:06;;;;;;;16.63;3.85;;;;;;;18.60;100.00;99702.59;5028728;28;20061;-82
2022/10/20 09:59:37;;;;;;;11.63;4.25;;;;;;;19.36;98.63;99708.03;4998043;28;20037;-81
2022/10/20 10:02:27;;;;;;;12.77;2.95;;;;;;;19.72;98.02;99720.09;5011867;28;20034;-82
2022/10/20 10:04:53;;;;;;;14.10;3.22;;;;;;;21.22;87.74;99716.91;5014546;28;20041;-83
2022/10/20 10:07:25;;;;;;;16.75;5.47;;;;;;;21.04;88.00;99723.75;5013708;28;20037;-82
2022/10/20 10:09:59;;;;;;;16.25;4.80;;;;;;;20.13;93.00;99720.34;5026141;28;20422;-82
2022/10/20 10:12:27;;;;;;;18.95;7.13;;;;;;;19.76;94.37;99707.56;5029784;28;20532;-83
2022/10/20 10:15:31;;;;;;;11.20;5.15;;;;;;;20.86;90.33;99712.22;4997248;28;20038;-81
2022/10/20 10:17:57;;;;;;;14.00;3.47;;;;;;;21.86;86.18;99707.41;5011966;28;20048;-84
2022/10/20 10:20:28;;;;;;;12.00;2.97;;;;;;;21.56;85.10;99705.50;5027837;28;20048;-82
2022/10/20 10:23:21;;;;;;;12.23;4.50;;;;;;;21.39;85.84;99714.78;5029399;28;20025;-82
2022/10/20 10:25:48;;;;;;;12.95;2.90;;;;;;;20.35;91.30;99697.53;5034697;28;20040;-83
2022/10/20 10:28:32;;;;;;;17.38;4.55;;;;;;;19.37;97.24;99700.69;4995719;28;20041;-82
2022/10/20 10:31:17;;;;;;;19.65;5.75;;;;;;;19.21;99.83;99699.72;5040357;28;20030;-83
2022/10/20 10:33:43;;;;;;;13.90;4.70;;;;;;;19.21;99.27;99695.13;4996273;28;20120;-82
2022/10/20 10:36:24;;;;;;;14.80;4.32;;;;;;;19.21;100.00;99691.53;5029744;28;20539;-81
2022/10/20 10:38:50;;;;;;;15.35;5.05;;;;;;;20.94;94.52;99689.00;5030117;28;20029;-83
2022/10/20 10:41:20;;;;;;;17.40;4.43;;;;;;;21.76;86.01;99675.38;5029236;28;20430;-81
2022/10/20 10:44:01;;;;;;;14.00;2.80;;;;;;;22.13;82.52;99688.69;5024357;28;20051;-81
2022/10/20 10:46:36;;;;;;;14.20;3.40;;;;;;;21.71;86.70;99689.88;5013081;28;20041;-84
2022/10/20 10:49:29;;;;;;;15.80;2.83;;;;;;;22.17;81.14;99688.97;4995035;28;20502;-80
2022/10/20 10:52:16;;;;;;;10.70;2.90;;;;;;;22.26;81.31;99681.84;5006046;28;20116;-83
2022/10/20 10:55:13;;;;;;;15.73;2.25;;;;;;;22.92;79.06;99682.63;5037991;28;20360;-81
2022/10/20 10:58:10;;;;;;;11.10;2.58;;;;;;;22.48;81.57;99689.69;4994903;28;20026;-82
2022/10/20 11:00:54;;;;;;;7.82;2.60;;;;;;;21.38;79.65;99642.06;5026874;28;20080;-83
2022/10/20 11:03:28;;;;;;;7.25;2.50;;;;;;;21.03;83.26;99681.91;5027466;28;20152;-83
2022/10/20 11:06:17;;;;;;;10.88;2.78;;;;;;;21.29;82.15;99655.41;5024223;28;20036;-83
2022/10/20 11:09:03;;;;;;;6.35;1.92;;;;;;;22.88;73.67;99667.84;5027574;28;20038;-85
2022/10/20 11:11:51;;;;;;;11.13;3.03;;;;;;;23.74;64.13;99669.13;5012207;28;20030;-83
2022/10/20 11:14:25;;;;;;;14.40;3.03;;;;;;;23.80;63.51;99678.13;5026668;28;20479;-80
2022/10/20 11:17:20;;;;;;;14.98;3.70;;;;;;;24.31;60.62;99664.63;5012385;28;20026;-82
2022/10/20 11:20:21;;;;;;;17.45;5.40;;;;;;;23.57;59.94;99664.03;4991996;28;20496;-81
2022/10/20 11:22:53;;;;;;;11.00;4.97;;;;;;;22.50;63.77;99662.03;5023155;28;20573;-80
2022/10/20 11:25:29;;;;;;;33.15;13.50;;;;;;;21.95;67.42;99662.75;5008239;28;20051;-75
2022/10/20 11:27:57;;;;;;;22.25;9.60;;;;;;;21.19;69.09;99658.16;5003375;28;20491;-80
2022/10/20 11:30:26;;;;;;;19.25;7.35;;;;;;;20.39;70.14;99641.31;5007187;28;20059;-75
2022/10/20 11:33:11;;;;;;;31.42;8.82;;;;;;;19.73;69.71;99642.63;5021376;28;20036;-77
2022/10/20 11:36:00;;;;;;;30.50;10.68;;;;;;;19.61;74.54;99643.88;5010087;28;20110;-75
2022/10/20 11:38:42;;;;;;;8.15;2.83;;;;;;;19.36;74.01;99622.72;4990947;28;20048;-76
2022/10/20 11:41:28;;;;;;;12.57;2.60;;;;;;;19.26;75.19;99635.19;5014085;28;20392;-79